sensor_id;sensor_type;location;lat;lon;timestamp;temperature;humidity
16271;DHT22;8243;49.048;8.396;2023-10-19T00:00:54;11.20;99.90
16271;DHT22;8243;49.048;8.396;2023-10-19T00:03:22;11.20;99.90
16271;DHT22;8243;49.048;8.396;2023-10-19T00:05:49;11.20;99.90
16271;DHT22;8243;49.048;8.396;2023-10-19T00:08:15;11.30;99.90
16271;DHT22;8243;49.048;8.396;2023-10-19T00:10:44;11.30;99.90
16271;DHT22;8243;49.048;8.396;2023-10-19T00:13:13;11.20;99.90
16271;DHT22;8243;49.048;8.396;2023-10-19T00:15:40;11.30;99.90
16271;DHT22;8243;49.048;8.396;2023-10-19T00:18:08;11.30;99.90
16271;DHT22;8243;49.048;8.396;2023-10-19T00:20:55;11.40;99.90
16271;DHT22;8243;49.048;8.396;2023-10-19T00:23:39;11.30;99.90
16271;DHT22;8243;49.048;8.396;2023-10-19T00:26:05;11.40;99.90
16271;DHT22;8243;49.048;8.396;2023-10-19T00:28:35;11.30;99.90
16271;DHT22;8243;49.048;8.396;2023-10-19T00:31:02;11.30;99.90
16271;DHT22;8243;49.048;8.396;2023-10-19T00:33:34;11.30;99.90
16271;DHT22;8243;49.048;8.396;2023-10-19T00:36:04;11.30;99.90
16271;DHT22;8243;49.048;8.396;2023-10-19T00:38:34;11.30;99.90
16271;DHT22;8243;49.048;8.396;2023-10-19T00:41:03;11.20;99.90
16271;DHT22;8243;49.048;8.396;2023-10-19T00:43:33;11.20;99.90
16271;DHT22;8243;49.048;8.396;2023-10-19T00:46:03;11.20;99.90
16271;DHT22;8243;49.048;8.396;2023-10-19T00:48:33;11.30;99.90
16271;DHT22;8243;49.048;8.396;2023-10-19T00:51:00;11.20;99.90
16271;DHT22;8243;49.048;8.396;2023-10-19T00:53:38;11.30;99.90
16271;DHT22;8243;49.048;8.396;2023-10-19T00:56:06;11.20;99.90
16271;DHT22;8243;49.048;8.396;2023-10-19T00:58:35;11.20;99.90
16271;DHT22;8243;49.048;8.396;2023-10-19T01:01:05;11.20;99.90
16271;DHT22;8243;49.048;8.396;2023-10-19T01:03:34;11.30;99.90
16271;DHT22;8243;49.048;8.396;2023-10-19T01:06:04;11.30;99.90
16271;DHT22;8243;49.048;8.396;2023-10-19T01:08:38;11.30;99.90
16271;DHT22;8243;49.048;8.396;2023-10-19T01:11:08;11.40;99.90
16271;DHT22;8243;49.048;8.396;2023-10-19T01:13:38;11.40;99.90
16271;DHT22;8243;49.048;8.396;2023-10-19T01:16:03;11.40;99.90
16271;DHT22;8243;49.048;8.396;2023-10-19T01:18:30;11.40;99.90
16271;DHT22;8243;49.048;8.396;2023-10-19T01:20:58;11.40;99.90
16271;DHT22;8243;49.048;8.396;2023-10-19T01:23:32;11.40;99.90
16271;DHT22;8243;49.048;8.396;2023-10-19T01:26:00;11.50;99.90
16271;DHT22;8243;49.048;8.396;2023-10-19T01:28:33;11.50;99.90
16271;DHT22;8243;49.048;8.396;2023-10-19T01:31:22;11.40;99.90
16271;DHT22;8243;49.048;8.396;2023-10-19T01:33:56;11.50;99.90
16271;DHT22;8243;49.048;8.396;2023-10-19T01:36:23;11.50;99.90
16271;DHT22;8243;49.048;8.396;2023-10-19T01:38:49;11.50;99.90
16271;DHT22;8243;49.048;8.396;2023-10-19T01:41:15;11.40;99.90
16271;DHT22;8243;49.048;8.396;2023-10-19T01:43:49;11.50;99.90
16271;DHT22;8243;49.048;8.396;2023-10-19T01:46:17;11.50;99.90
16271;DHT22;8243;49.048;8.396;2023-10-19T01:48:57;11.50;99.90
16271;DHT22;8243;49.048;8.396;2023-10-19T01:51:24;11.50;99.90
16271;DHT22;8243;49.048;8.396;2023-10-19T01:53:54;11.50;99.90
16271;DHT22;8243;49.048;8.396;2023-10-19T01:56:23;11.40;99.90
16271;DHT22;8243;49.048;8.396;2023-10-19T01:58:49;11.50;99.90
16271;DHT22;8243;49.048;8.396;2023-10-19T02:01:17;11.50;99.90
16271;DHT22;8243;49.048;8.396;2023-10-19T02:03:49;11.40;99.90
16271;DHT22;8243;49.048;8.396;2023-10-19T02:06:25;11.50;99.90
16271;DHT22;8243;49.048;8.396;2023-10-19T02:09:07;11.50;99.90
16271;DHT22;8243;49.048;8.396;2023-10-19T02:11:56;11.50;99.90
16271;DHT22;8243;49.048;8.396;2023-10-19T02:14:23;11.50;99.90
16271;DHT22;8243;49.048;8.396;2023-10-19T02:16:52;11.50;99.90
16271;DHT22;8243;49.048;8.396;2023-10-19T02:19:19;11.60;99.90
16271;DHT22;8243;49.048;8.396;2023-10-19T02:21:48;11.50;99.90
16271;DHT22;8243;49.048;8.396;2023-10-19T02:24:14;11.60;99.90
16271;DHT22;8243;49.048;8.396;2023-10-19T02:26:41;11.50;99.90
16271;DHT22;8243;49.048;8.396;2023-10-19T02:29:07;11.50;99.90
16271;DHT22;8243;49.048;8.396;2023-10-19T02:31:38;11.60;99.90
16271;DHT22;8243;49.048;8.396;2023-10-19T02:34:06;11.70;99.90
16271;DHT22;8243;49.048;8.396;2023-10-19T02:36:33;11.60;99.90
16271;DHT22;8243;49.048;8.396;2023-10-19T02:39:03;11.70;99.90
16271;DHT22;8243;49.048;8.396;2023-10-19T02:41:36;11.60;99.90
16271;DHT22;8243;49.048;8.396;2023-10-19T02:44:03;11.70;99.90
16271;DHT22;8243;49.048;8.396;2023-10-19T02:46:35;11.60;99.90
16271;DHT22;8243;49.048;8.396;2023-10-19T02:49:05;11.70;99.90
16271;DHT22;8243;49.048;8.396;2023-10-19T02:51:35;11.80;99.90
16271;DHT22;8243;49.048;8.396;2023-10-19T02:54:02;11.80;99.90
16271;DHT22;8243;49.048;8.396;2023-10-19T02:56:28;11.80;99.90
16271;DHT22;8243;49.048;8.396;2023-10-19T02:58:55;11.80;99.90
16271;DHT22;8243;49.048;8.396;2023-10-19T03:01:27;11.80;99.90
16271;DHT22;8243;49.048;8.396;2023-10-19T03:03:57;11.80;99.90
16271;DHT22;8243;49.048;8.396;2023-10-19T03:06:27;11.80;99.90
16271;DHT22;8243;49.048;8.396;2023-10-19T03:08:57;11.80;99.90
16271;DHT22;8243;49.048;8.396;2023-10-19T03:11:24;11.80;99.90
16271;DHT22;8243;49.048;8.396;2023-10-19T03:13:50;11.90;99.90
16271;DHT22;8243;49.048;8.396;2023-10-19T03:16:17;11.90;99.90
16271;DHT22;8243;49.048;8.396;2023-10-19T03:18:43;11.80;99.90
16271;DHT22;8243;49.048;8.396;2023-10-19T03:21:08;11.90;99.90
16271;DHT22;8243;49.048;8.396;2023-10-19T03:23:36;11.90;99.90
16271;DHT22;8243;49.048;8.396;2023-10-19T03:26:03;11.80;99.90
16271;DHT22;8243;49.048;8.396;2023-10-19T03:28:49;11.90;99.90
16271;DHT22;8243;49.048;8.396;2023-10-19T03:31:20;11.80;99.90
16271;DHT22;8243;49.048;8.396;2023-10-19T03:33:46;11.90;99.90
16271;DHT22;8243;49.048;8.396;2023-10-19T03:36:15;11.80;99.90
16271;DHT22;8243;49.048;8.396;2023-10-19T03:38:41;11.80;99.90
16271;DHT22;8243;49.048;8.396;2023-10-19T03:41:07;11.90;99.90
16271;DHT22;8243;49.048;8.396;2023-10-19T03:43:34;11.90;99.90
16271;DHT22;8243;49.048;8.396;2023-10-19T03:46:02;12.00;99.90
16271;DHT22;8243;49.048;8.396;2023-10-19T03:48:35;12.10;99.90
16271;DHT22;8243;49.048;8.396;2023-10-19T03:51:03;12.10;99.90
16271;DHT22;8243;49.048;8.396;2023-10-19T03:53:30;12.00;99.90
16271;DHT22;8243;49.048;8.396;2023-10-19T03:55:57;12.00;99.90
16271;DHT22;8243;49.048;8.396;2023-10-19T03:58:23;12.00;99.90
16271;DHT22;8243;49.048;8.396;2023-10-19T04:00:48;12.00;99.90
16271;DHT22;8243;49.048;8.396;2023-10-19T04:03:15;12.00;99.90
16271;DHT22;8243;49.048;8.396;2023-10-19T04:05:43;12.00;99.90
16271;DHT22;8243;49.048;8.396;2023-10-19T04:08:12;12.00;99.90
16271;DHT22;8243;49.048;8.396;2023-10-19T04:10:46;11.90;99.90
16271;DHT22;8243;49.048;8.396;2023-10-19T04:13:31;11.90;99.90
16271;DHT22;8243;49.048;8.396;2023-10-19T04:15:57;11.90;99.90
16271;DHT22;8243;49.048;8.396;2023-10-19T04:18:22;11.90;99.90
16271;DHT22;8243;49.048;8.396;2023-10-19T04:20:51;11.90;99.90
16271;DHT22;8243;49.048;8.396;2023-10-19T04:23:20;11.70;99.90
16271;DHT22;8243;49.048;8.396;2023-10-19T04:25:47;11.70;99.90
16271;DHT22;8243;49.048;8.396;2023-10-19T04:28:13;11.60;99.90
16271;DHT22;8243;49.048;8.396;2023-10-19T04:30:45;11.60;99.90
16271;DHT22;8243;49.048;8.396;2023-10-19T04:33:11;11.50;99.90
16271;DHT22;8243;49.048;8.396;2023-10-19T04:35:37;11.60;99.90
16271;DHT22;8243;49.048;8.396;2023-10-19T04:38:04;11.50;99.90
16271;DHT22;8243;49.048;8.396;2023-10-19T04:40:33;11.40;99.90
16271;DHT22;8243;49.048;8.396;2023-10-19T04:43:01;11.40;99.90
16271;DHT22;8243;49.048;8.396;2023-10-19T04:45:27;11.20;99.90
16271;DHT22;8243;49.048;8.396;2023-10-19T04:47:53;11.20;99.90
16271;DHT22;8243;49.048;8.396;2023-10-19T04:50:20;11.10;99.90
16271;DHT22;8243;49.048;8.396;2023-10-19T04:52:46;11.10;99.90
16271;DHT22;8243;49.048;8.396;2023-10-19T04:55:13;11.00;99.90
16271;DHT22;8243;49.048;8.396;2023-10-19T04:57:38;10.80;99.90
16271;DHT22;8243;49.048;8.396;2023-10-19T05:00:04;10.90;99.90
16271;DHT22;8243;49.048;8.396;2023-10-19T05:02:30;10.80;99.90
16271;DHT22;8243;49.048;8.396;2023-10-19T05:04:55;10.90;99.90
16271;DHT22;8243;49.048;8.396;2023-10-19T05:07:23;10.80;99.90
16271;DHT22;8243;49.048;8.396;2023-10-19T05:09:49;10.70;99.90
16271;DHT22;8243;49.048;8.396;2023-10-19T05:12:14;10.70;99.90
16271;DHT22;8243;49.048;8.396;2023-10-19T05:14:41;10.80;99.90
16271;DHT22;8243;49.048;8.396;2023-10-19T05:17:08;10.90;99.90
16271;DHT22;8243;49.048;8.396;2023-10-19T05:19:37;10.90;99.90
16271;DHT22;8243;49.048;8.396;2023-10-19T05:22:04;10.80;99.90
16271;DHT22;8243;49.048;8.396;2023-10-19T05:24:29;10.80;99.90
16271;DHT22;8243;49.048;8.396;2023-10-19T05:26:55;10.80;99.90
16271;DHT22;8243;49.048;8.396;2023-10-19T05:29:21;10.80;99.90
16271;DHT22;8243;49.048;8.396;2023-10-19T05:31:47;10.90;99.90
16271;DHT22;8243;49.048;8.396;2023-10-19T05:34:21;10.90;99.90
16271;DHT22;8243;49.048;8.396;2023-10-19T05:36:47;10.90;99.90
16271;DHT22;8243;49.048;8.396;2023-10-19T05:39:15;11.00;99.90
16271;DHT22;8243;49.048;8.396;2023-10-19T05:41:40;11.00;99.90
16271;DHT22;8243;49.048;8.396;2023-10-19T05:44:06;11.00;99.90
16271;DHT22;8243;49.048;8.396;2023-10-19T05:46:31;11.00;99.90
16271;DHT22;8243;49.048;8.396;2023-10-19T05:48:57;11.00;99.90
16271;DHT22;8243;49.048;8.396;2023-10-19T05:51:23;11.00;99.90
16271;DHT22;8243;49.048;8.396;2023-10-19T05:53:49;11.00;99.90
16271;DHT22;8243;49.048;8.396;2023-10-19T05:56:16;11.00;99.90
16271;DHT22;8243;49.048;8.396;2023-10-19T05:58:43;11.00;99.90
16271;DHT22;8243;49.048;8.396;2023-10-19T06:01:08;11.00;99.90
16271;DHT22;8243;49.048;8.396;2023-10-19T06:03:34;10.90;99.90
16271;DHT22;8243;49.048;8.396;2023-10-19T06:05:59;10.90;99.90
16271;DHT22;8243;49.048;8.396;2023-10-19T06:08:25;10.80;99.90
16271;DHT22;8243;49.048;8.396;2023-10-19T06:10:52;10.90;99.90
16271;DHT22;8243;49.048;8.396;2023-10-19T06:13:18;10.90;99.90
16271;DHT22;8243;49.048;8.396;2023-10-19T06:15:44;10.90;99.90
16271;DHT22;8243;49.048;8.396;2023-10-19T06:18:10;10.90;99.90
16271;DHT22;8243;49.048;8.396;2023-10-19T06:20:36;11.00;99.90
16271;DHT22;8243;49.048;8.396;2023-10-19T06:23:02;11.00;99.90
16271;DHT22;8243;49.048;8.396;2023-10-19T06:25:33;10.90;99.90
16271;DHT22;8243;49.048;8.396;2023-10-19T06:28:02;10.90;99.90
16271;DHT22;8243;49.048;8.396;2023-10-19T06:30:27;10.90;99.90
16271;DHT22;8243;49.048;8.396;2023-10-19T06:32:55;10.80;99.90
16271;DHT22;8243;49.048;8.396;2023-10-19T06:35:21;10.90;99.90
16271;DHT22;8243;49.048;8.396;2023-10-19T06:37:48;11.00;99.90
16271;DHT22;8243;49.048;8.396;2023-10-19T06:40:15;11.00;99.90
16271;DHT22;8243;49.048;8.396;2023-10-19T06:42:45;11.10;99.90
16271;DHT22;8243;49.048;8.396;2023-10-19T06:45:15;11.20;99.90
16271;DHT22;8243;49.048;8.396;2023-10-19T06:47:45;11.20;99.90
16271;DHT22;8243;49.048;8.396;2023-10-19T06:50:12;11.20;99.90
16271;DHT22;8243;49.048;8.396;2023-10-19T06:52:41;11.40;99.90
16271;DHT22;8243;49.048;8.396;2023-10-19T06:55:08;11.50;99.90
16271;DHT22;8243;49.048;8.396;2023-10-19T06:57:49;11.50;99.90
16271;DHT22;8243;49.048;8.396;2023-10-19T07:00:17;11.60;99.90
16271;DHT22;8243;49.048;8.396;2023-10-19T07:02:47;11.70;99.90
16271;DHT22;8243;49.048;8.396;2023-10-19T07:05:14;11.70;99.90
16271;DHT22;8243;49.048;8.396;2023-10-19T07:07:44;11.70;99.90
16271;DHT22;8243;49.048;8.396;2023-10-19T07:10:14;11.90;99.90
16271;DHT22;8243;49.048;8.396;2023-10-19T07:12:42;11.90;99.90
16271;DHT22;8243;49.048;8.396;2023-10-19T07:15:09;12.00;99.90
16271;DHT22;8243;49.048;8.396;2023-10-19T07:17:42;12.00;99.90
16271;DHT22;8243;49.048;8.396;2023-10-19T07:20:09;12.00;99.90
16271;DHT22;8243;49.048;8.396;2023-10-19T07:22:47;12.00;99.90
16271;DHT22;8243;49.048;8.396;2023-10-19T07:25:13;12.10;99.90
16271;DHT22;8243;49.048;8.396;2023-10-19T07:27:38;12.00;99.90
16271;DHT22;8243;49.048;8.396;2023-10-19T07:30:08;12.00;99.90
16271;DHT22;8243;49.048;8.396;2023-10-19T07:32:35;12.10;99.90
16271;DHT22;8243;49.048;8.396;2023-10-19T07:35:00;12.20;99.90
16271;DHT22;8243;49.048;8.396;2023-10-19T07:37:26;12.30;99.90
16271;DHT22;8243;49.048;8.396;2023-10-19T07:39:54;12.30;99.90
16271;DHT22;8243;49.048;8.396;2023-10-19T07:42:23;12.40;99.90
16271;DHT22;8243;49.048;8.396;2023-10-19T07:44:48;12.50;99.90
16271;DHT22;8243;49.048;8.396;2023-10-19T07:47:16;12.60;99.90
16271;DHT22;8243;49.048;8.396;2023-10-19T07:49:42;12.70;99.90
16271;DHT22;8243;49.048;8.396;2023-10-19T07:52:14;12.80;99.90
16271;DHT22;8243;49.048;8.396;2023-10-19T07:54:40;12.90;99.90
16271;DHT22;8243;49.048;8.396;2023-10-19T07:57:05;13.20;99.90
16271;DHT22;8243;49.048;8.396;2023-10-19T07:59:35;13.20;99.90
16271;DHT22;8243;49.048;8.396;2023-10-19T08:02:01;13.50;99.90
16271;DHT22;8243;49.048;8.396;2023-10-19T08:04:30;13.80;99.90
16271;DHT22;8243;49.048;8.396;2023-10-19T08:06:57;14.20;99.90
16271;DHT22;8243;49.048;8.396;2023-10-19T08:09:23;15.00;99.90
16271;DHT22;8243;49.048;8.396;2023-10-19T08:11:50;15.50;99.90
16271;DHT22;8243;49.048;8.396;2023-10-19T08:14:24;16.00;99.90
16271;DHT22;8243;49.048;8.396;2023-10-19T08:16:50;16.30;99.90
16271;DHT22;8243;49.048;8.396;2023-10-19T08:19:16;16.50;99.90
16271;DHT22;8243;49.048;8.396;2023-10-19T08:21:42;17.00;99.90
16271;DHT22;8243;49.048;8.396;2023-10-19T08:24:08;17.20;99.90
16271;DHT22;8243;49.048;8.396;2023-10-19T08:26:39;17.30;99.90
16271;DHT22;8243;49.048;8.396;2023-10-19T08:29:07;16.90;99.90
16271;DHT22;8243;49.048;8.396;2023-10-19T08:31:41;17.10;99.90
16271;DHT22;8243;49.048;8.396;2023-10-19T08:34:13;17.20;99.90
16271;DHT22;8243;49.048;8.396;2023-10-19T08:36:39;17.40;99.90
16271;DHT22;8243;49.048;8.396;2023-10-19T08:39:05;17.60;99.90
16271;DHT22;8243;49.048;8.396;2023-10-19T08:41:35;17.90;99.90
16271;DHT22;8243;49.048;8.396;2023-10-19T08:44:04;17.70;99.90
16271;DHT22;8243;49.048;8.396;2023-10-19T08:46:36;17.70;99.90
16271;DHT22;8243;49.048;8.396;2023-10-19T08:49:03;17.40;99.90
16271;DHT22;8243;49.048;8.396;2023-10-19T08:51:29;17.40;99.90
16271;DHT22;8243;49.048;8.396;2023-10-19T08:53:54;17.30;99.90
16271;DHT22;8243;49.048;8.396;2023-10-19T08:56:20;17.30;99.90
16271;DHT22;8243;49.048;8.396;2023-10-19T08:58:52;17.30;99.90
16271;DHT22;8243;49.048;8.396;2023-10-19T09:01:19;17.50;99.90
16271;DHT22;8243;49.048;8.396;2023-10-19T09:03:45;17.50;99.90
16271;DHT22;8243;49.048;8.396;2023-10-19T09:06:12;17.70;99.90
16271;DHT22;8243;49.048;8.396;2023-10-19T09:08:39;17.80;99.90
16271;DHT22;8243;49.048;8.396;2023-10-19T09:11:10;18.00;99.90
16271;DHT22;8243;49.048;8.396;2023-10-19T09:13:48;18.20;99.90
16271;DHT22;8243;49.048;8.396;2023-10-19T09:16:16;18.50;99.90
16271;DHT22;8243;49.048;8.396;2023-10-19T09:18:42;18.60;99.90
16271;DHT22;8243;49.048;8.396;2023-10-19T09:21:08;18.50;99.90
16271;DHT22;8243;49.048;8.396;2023-10-19T09:23:38;18.70;99.90
16271;DHT22;8243;49.048;8.396;2023-10-19T09:26:04;18.40;99.90
16271;DHT22;8243;49.048;8.396;2023-10-19T09:28:32;18.50;99.90
16271;DHT22;8243;49.048;8.396;2023-10-19T09:31:00;18.70;99.90
16271;DHT22;8243;49.048;8.396;2023-10-19T09:33:27;19.20;99.90
16271;DHT22;8243;49.048;8.396;2023-10-19T09:35:53;19.80;99.90
16271;DHT22;8243;49.048;8.396;2023-10-19T09:38:19;20.10;99.90
16271;DHT22;8243;49.048;8.396;2023-10-19T09:40:51;19.30;99.90
16271;DHT22;8243;49.048;8.396;2023-10-19T09:43:44;19.00;99.90
16271;DHT22;8243;49.048;8.396;2023-10-19T09:46:10;19.20;99.90
16271;DHT22;8243;49.048;8.396;2023-10-19T09:48:41;19.00;99.90
16271;DHT22;8243;49.048;8.396;2023-10-19T09:51:08;19.20;99.90
16271;DHT22;8243;49.048;8.396;2023-10-19T09:53:35;19.40;99.90
16271;DHT22;8243;49.048;8.396;2023-10-19T09:56:04;19.40;99.90
16271;DHT22;8243;49.048;8.396;2023-10-19T09:58:55;18.80;99.90
16271;DHT22;8243;49.048;8.396;2023-10-19T10:01:23;18.30;99.90
16271;DHT22;8243;49.048;8.396;2023-10-19T10:03:50;18.40;99.90
16271;DHT22;8243;49.048;8.396;2023-10-19T10:09:25;18.90;99.90
16271;DHT22;8243;49.048;8.396;2023-10-19T10:11:54;18.80;99.90
16271;DHT22;8243;49.048;8.396;2023-10-19T10:14:27;18.40;99.90
16271;DHT22;8243;49.048;8.396;2023-10-19T10:17:04;18.40;99.90
16271;DHT22;8243;49.048;8.396;2023-10-19T10:19:31;18.50;99.90
16271;DHT22;8243;49.048;8.396;2023-10-19T10:22:09;18.30;99.90
16271;DHT22;8243;49.048;8.396;2023-10-19T10:24:41;18.30;99.90
16271;DHT22;8243;49.048;8.396;2023-10-19T10:27:07;18.20;99.90
16271;DHT22;8243;49.048;8.396;2023-10-19T10:29:33;18.00;99.90
16271;DHT22;8243;49.048;8.396;2023-10-19T10:31:59;18.10;99.90
16271;DHT22;8243;49.048;8.396;2023-10-19T10:37:03;18.10;99.90
16271;DHT22;8243;49.048;8.396;2023-10-19T10:39:30;18.10;99.90
16271;DHT22;8243;49.048;8.396;2023-10-19T10:41:59;17.90;99.90
16271;DHT22;8243;49.048;8.396;2023-10-19T10:44:45;17.50;99.90
16271;DHT22;8243;49.048;8.396;2023-10-19T10:47:16;17.40;99.90
16271;DHT22;8243;49.048;8.396;2023-10-19T10:52:23;17.30;99.90
16271;DHT22;8243;49.048;8.396;2023-10-19T10:54:49;17.30;99.90
16271;DHT22;8243;49.048;8.396;2023-10-19T10:57:15;17.10;99.90
16271;DHT22;8243;49.048;8.396;2023-10-19T10:59:41;17.00;99.90
16271;DHT22;8243;49.048;8.396;2023-10-19T11:02:20;17.00;99.90
16271;DHT22;8243;49.048;8.396;2023-10-19T11:04:47;16.90;99.90
16271;DHT22;8243;49.048;8.396;2023-10-19T11:07:19;16.90;99.90
16271;DHT22;8243;49.048;8.396;2023-10-19T11:09:46;16.90;99.90
16271;DHT22;8243;49.048;8.396;2023-10-19T11:12:13;17.00;99.90
16271;DHT22;8243;49.048;8.396;2023-10-19T11:14:59;16.90;99.90
16271;DHT22;8243;49.048;8.396;2023-10-19T11:17:26;16.60;99.90
16271;DHT22;8243;49.048;8.396;2023-10-19T11:19:57;16.50;99.90
16271;DHT22;8243;49.048;8.396;2023-10-19T11:22:24;16.20;99.90
16271;DHT22;8243;49.048;8.396;2023-10-19T11:24:53;15.90;99.90
16271;DHT22;8243;49.048;8.396;2023-10-19T11:29:58;15.80;99.90
16271;DHT22;8243;49.048;8.396;2023-10-19T11:32:25;15.80;99.90
16271;DHT22;8243;49.048;8.396;2023-10-19T11:34:54;15.70;99.90
16271;DHT22;8243;49.048;8.396;2023-10-19T11:37:21;15.70;99.90
16271;DHT22;8243;49.048;8.396;2023-10-19T11:39:47;15.80;99.90
16271;DHT22;8243;49.048;8.396;2023-10-19T11:42:15;15.90;99.90
16271;DHT22;8243;49.048;8.396;2023-10-19T11:44:41;15.80;99.90
16271;DHT22;8243;49.048;8.396;2023-10-19T11:47:06;15.70;99.90
16271;DHT22;8243;49.048;8.396;2023-10-19T11:49:37;15.70;99.90
16271;DHT22;8243;49.048;8.396;2023-10-19T11:52:06;15.70;99.90
16271;DHT22;8243;49.048;8.396;2023-10-19T11:54:35;15.90;99.90
16271;DHT22;8243;49.048;8.396;2023-10-19T11:57:00;15.90;99.90
16271;DHT22;8243;49.048;8.396;2023-10-19T11:59:27;16.00;99.90
16271;DHT22;8243;49.048;8.396;2023-10-19T12:01:53;16.20;99.90
16271;DHT22;8243;49.048;8.396;2023-10-19T12:04:20;16.30;99.90
16271;DHT22;8243;49.048;8.396;2023-10-19T12:06:47;16.30;99.90
16271;DHT22;8243;49.048;8.396;2023-10-19T12:09:13;16.20;99.90
16271;DHT22;8243;49.048;8.396;2023-10-19T12:11:43;16.30;99.90
16271;DHT22;8243;49.048;8.396;2023-10-19T12:14:12;16.50;99.90
16271;DHT22;8243;49.048;8.396;2023-10-19T12:16:40;16.60;99.90
16271;DHT22;8243;49.048;8.396;2023-10-19T12:19:06;16.60;99.90
16271;DHT22;8243;49.048;8.396;2023-10-19T12:21:35;16.70;99.90
16271;DHT22;8243;49.048;8.396;2023-10-19T12:24:03;16.80;99.90
16271;DHT22;8243;49.048;8.396;2023-10-19T12:26:30;16.80;99.90
16271;DHT22;8243;49.048;8.396;2023-10-19T12:28:56;16.70;99.90
16271;DHT22;8243;49.048;8.396;2023-10-19T12:31:22;16.50;99.90
16271;DHT22;8243;49.048;8.396;2023-10-19T12:33:49;16.60;99.90
16271;DHT22;8243;49.048;8.396;2023-10-19T12:36:15;16.50;99.90
16271;DHT22;8243;49.048;8.396;2023-10-19T12:38:51;16.50;99.90
16271;DHT22;8243;49.048;8.396;2023-10-19T12:41:24;16.80;99.90
16271;DHT22;8243;49.048;8.396;2023-10-19T12:43:50;16.90;99.90
16271;DHT22;8243;49.048;8.396;2023-10-19T12:46:36;17.00;99.90
16271;DHT22;8243;49.048;8.396;2023-10-19T12:49:05;16.90;99.90
16271;DHT22;8243;49.048;8.396;2023-10-19T12:51:43;16.80;99.90
16271;DHT22;8243;49.048;8.396;2023-10-19T12:54:11;16.90;99.90
16271;DHT22;8243;49.048;8.396;2023-10-19T12:56:39;16.90;99.90
16271;DHT22;8243;49.048;8.396;2023-10-19T12:59:05;16.80;99.90
16271;DHT22;8243;49.048;8.396;2023-10-19T13:01:34;16.90;99.90
16271;DHT22;8243;49.048;8.396;2023-10-19T13:04:04;16.90;99.90
16271;DHT22;8243;49.048;8.396;2023-10-19T13:06:44;17.00;99.90
16271;DHT22;8243;49.048;8.396;2023-10-19T13:09:12;17.00;99.90
16271;DHT22;8243;49.048;8.396;2023-10-19T13:11:41;17.10;99.90
16271;DHT22;8243;49.048;8.396;2023-10-19T13:14:09;17.10;99.90
16271;DHT22;8243;49.048;8.396;2023-10-19T13:16:35;17.00;99.90
16271;DHT22;8243;49.048;8.396;2023-10-19T13:19:01;17.10;99.90
16271;DHT22;8243;49.048;8.396;2023-10-19T13:21:41;17.10;99.90
16271;DHT22;8243;49.048;8.396;2023-10-19T13:24:08;17.10;99.90
16271;DHT22;8243;49.048;8.396;2023-10-19T13:26:34;17.20;99.90
16271;DHT22;8243;49.048;8.396;2023-10-19T13:29:00;17.30;99.90
16271;DHT22;8243;49.048;8.396;2023-10-19T13:31:25;17.20;99.90
16271;DHT22;8243;49.048;8.396;2023-10-19T13:33:52;17.20;99.90
16271;DHT22;8243;49.048;8.396;2023-10-19T13:36:18;17.30;99.90
16271;DHT22;8243;49.048;8.396;2023-10-19T13:38:44;17.20;99.90
16271;DHT22;8243;49.048;8.396;2023-10-19T13:41:10;17.20;99.90
16271;DHT22;8243;49.048;8.396;2023-10-19T13:43:37;17.10;99.90
16271;DHT22;8243;49.048;8.396;2023-10-19T13:46:03;16.80;99.90
16271;DHT22;8243;49.048;8.396;2023-10-19T13:48:30;16.60;99.90
16271;DHT22;8243;49.048;8.396;2023-10-19T13:50:57;16.50;99.90
16271;DHT22;8243;49.048;8.396;2023-10-19T13:53:27;16.60;99.90
16271;DHT22;8243;49.048;8.396;2023-10-19T13:55:53;16.70;99.90
16271;DHT22;8243;49.048;8.396;2023-10-19T13:58:19;16.60;99.90
16271;DHT22;8243;49.048;8.396;2023-10-19T14:00:44;16.40;99.90
16271;DHT22;8243;49.048;8.396;2023-10-19T14:03:13;16.30;99.90
16271;DHT22;8243;49.048;8.396;2023-10-19T14:05:39;16.20;99.90
16271;DHT22;8243;49.048;8.396;2023-10-19T14:08:06;16.20;99.90
16271;DHT22;8243;49.048;8.396;2023-10-19T14:10:34;16.30;99.90
16271;DHT22;8243;49.048;8.396;2023-10-19T14:13:01;16.30;99.90
16271;DHT22;8243;49.048;8.396;2023-10-19T14:15:28;16.20;99.90
16271;DHT22;8243;49.048;8.396;2023-10-19T14:18:06;16.30;99.90
16271;DHT22;8243;49.048;8.396;2023-10-19T14:20:32;16.30;99.90
16271;DHT22;8243;49.048;8.396;2023-10-19T14:22:59;16.40;99.90
16271;DHT22;8243;49.048;8.396;2023-10-19T14:25:25;16.40;99.90
16271;DHT22;8243;49.048;8.396;2023-10-19T14:27:53;16.50;99.90
16271;DHT22;8243;49.048;8.396;2023-10-19T14:30:25;16.60;99.90
16271;DHT22;8243;49.048;8.396;2023-10-19T14:32:51;16.40;99.90
16271;DHT22;8243;49.048;8.396;2023-10-19T14:35:19;16.40;99.90
16271;DHT22;8243;49.048;8.396;2023-10-19T14:37:48;16.40;99.90
16271;DHT22;8243;49.048;8.396;2023-10-19T14:40:16;16.40;99.90
16271;DHT22;8243;49.048;8.396;2023-10-19T14:42:42;16.50;99.90
16271;DHT22;8243;49.048;8.396;2023-10-19T14:45:10;16.50;99.90
16271;DHT22;8243;49.048;8.396;2023-10-19T14:47:39;16.40;99.90
16271;DHT22;8243;49.048;8.396;2023-10-19T14:50:12;16.40;99.90
16271;DHT22;8243;49.048;8.396;2023-10-19T14:52:41;16.60;99.90
16271;DHT22;8243;49.048;8.396;2023-10-19T14:55:08;16.60;99.90
16271;DHT22;8243;49.048;8.396;2023-10-19T14:57:35;16.70;99.90
16271;DHT22;8243;49.048;8.396;2023-10-19T15:00:08;16.80;99.90
16271;DHT22;8243;49.048;8.396;2023-10-19T15:02:45;16.80;99.90
16271;DHT22;8243;49.048;8.396;2023-10-19T15:05:11;16.80;99.90
16271;DHT22;8243;49.048;8.396;2023-10-19T15:07:40;16.70;99.90
16271;DHT22;8243;49.048;8.396;2023-10-19T15:10:06;16.70;99.90
16271;DHT22;8243;49.048;8.396;2023-10-19T15:12:36;16.60;99.90
16271;DHT22;8243;49.048;8.396;2023-10-19T15:15:02;16.50;99.90
16271;DHT22;8243;49.048;8.396;2023-10-19T15:17:27;16.50;99.90
16271;DHT22;8243;49.048;8.396;2023-10-19T15:19:53;16.50;99.90
16271;DHT22;8243;49.048;8.396;2023-10-19T15:22:18;16.50;99.90
16271;DHT22;8243;49.048;8.396;2023-10-19T15:24:44;16.40;99.90
16271;DHT22;8243;49.048;8.396;2023-10-19T15:27:10;16.40;99.90
16271;DHT22;8243;49.048;8.396;2023-10-19T15:29:36;16.50;99.90
16271;DHT22;8243;49.048;8.396;2023-10-19T15:32:01;16.50;99.90
16271;DHT22;8243;49.048;8.396;2023-10-19T15:34:27;16.40;99.90
16271;DHT22;8243;49.048;8.396;2023-10-19T15:36:55;16.30;99.90
16271;DHT22;8243;49.048;8.396;2023-10-19T15:39:21;16.30;99.90
16271;DHT22;8243;49.048;8.396;2023-10-19T15:41:48;16.30;99.90
16271;DHT22;8243;49.048;8.396;2023-10-19T15:44:14;16.30;99.90
16271;DHT22;8243;49.048;8.396;2023-10-19T15:46:40;16.20;99.90
16271;DHT22;8243;49.048;8.396;2023-10-19T15:49:08;16.10;99.90
16271;DHT22;8243;49.048;8.396;2023-10-19T15:51:34;16.10;99.90
16271;DHT22;8243;49.048;8.396;2023-10-19T15:54:00;16.20;99.90
16271;DHT22;8243;49.048;8.396;2023-10-19T15:56:27;16.20;99.90
16271;DHT22;8243;49.048;8.396;2023-10-19T15:58:54;16.20;99.90
16271;DHT22;8243;49.048;8.396;2023-10-19T16:01:19;16.10;99.90
16271;DHT22;8243;49.048;8.396;2023-10-19T16:03:45;16.10;99.90